createdAt,value
2018-08-10T00:01:34.919Z,0.00
2018-08-10T03:51:40.009Z,88.00
2018-08-10T03:52:39.986Z,96.00
2018-08-10T03:53:39.899Z,108.00
2018-08-10T03:54:40.006Z,124.00
2018-08-10T03:57:32.249Z,164.00
2018-08-10T03:58:31.885Z,176.00
2018-08-10T03:59:31.134Z,188.00
2018-08-10T04:00:31.116Z,192.00
2018-08-10T04:01:31.056Z,200.00
2018-08-10T04:02:31.051Z,216.00
2018-08-10T04:03:31.065Z,248.00
2018-08-10T04:04:31.071Z,276.00
2018-08-10T04:05:31.054Z,288.00
2018-08-10T04:06:31.004Z,308.00
2018-08-10T04:07:31.161Z,340.00
2018-08-10T04:08:30.978Z,384.00
2018-08-10T04:09:30.982Z,412.00
2018-08-10T04:10:31.048Z,440.00
2018-08-10T04:11:30.977Z,456.00
2018-08-10T04:12:30.937Z,468.00
2018-08-10T04:13:30.948Z,508.00
2018-08-10T04:14:30.989Z,552.00
2018-08-10T04:15:30.905Z,612.00
2018-08-10T04:16:30.901Z,668.00
2018-08-10T04:17:30.925Z,680.00
2018-08-10T04:18:30.916Z,684.00
2018-08-10T04:19:30.864Z,740.00
2018-08-10T04:20:30.870Z,792.00
2018-08-10T04:21:30.863Z,828.00
2018-08-10T04:22:30.883Z,860.00
2018-08-10T04:23:30.852Z,920.00
2018-08-10T04:24:30.804Z,1024.00
2018-08-10T04:25:30.796Z,1108.00
2018-08-10T04:26:30.784Z,1212.00
2018-08-10T04:27:30.803Z,1324.00
2018-08-10T04:28:30.768Z,1356.00
2018-08-10T04:29:30.811Z,1368.00
2018-08-10T04:30:30.761Z,1396.00
2018-08-10T04:31:30.730Z,1456.00
2018-08-10T04:32:30.718Z,1524.00
2018-08-10T04:33:30.816Z,1592.00
2018-08-10T04:34:30.694Z,1604.00
2018-08-10T04:35:30.696Z,1648.00
2018-08-10T04:36:30.696Z,1708.00
2018-08-10T04:37:30.743Z,1792.00
2018-08-10T04:38:30.762Z,1864.00
2018-08-10T04:39:30.655Z,1960.00
2018-08-10T04:40:30.663Z,2072.00
2018-08-10T04:41:30.650Z,2224.00
2018-08-10T04:42:39.381Z,2400.00
2018-08-10T04:43:30.938Z,2496.00
2018-08-10T04:44:30.703Z,2604.00
2018-08-10T04:45:30.701Z,2696.00
2018-08-10T04:46:30.791Z,2772.00
2018-08-10T04:47:30.621Z,2868.00
2018-08-10T04:48:30.620Z,2940.00
2018-08-10T04:49:31.341Z,2996.00
2018-08-10T04:50:30.523Z,3084.00
2018-08-10T04:51:30.536Z,3180.00
2018-08-10T04:52:30.522Z,3284.00
2018-08-10T04:53:30.508Z,3380.00
2018-08-10T04:54:30.484Z,3524.00
2018-08-10T04:55:30.565Z,3628.00
2018-08-10T04:56:30.448Z,3692.00
2018-08-10T04:57:30.527Z,3724.00
2018-08-10T04:58:30.442Z,3756.00
2018-08-10T04:59:30.423Z,3792.00
2018-08-10T05:00:30.509Z,3856.00
2018-08-10T05:01:30.398Z,3916.00
2018-08-10T05:02:30.450Z,4004.00
2018-08-10T05:03:30.416Z,4096.00
2018-08-10T05:04:30.365Z,4164.00
2018-08-10T05:05:30.402Z,4272.00
2018-08-10T05:06:30.347Z,4332.00
2018-08-10T05:07:31.990Z,4408.00
2018-08-10T05:08:30.317Z,4476.00
2018-08-10T05:09:30.312Z,4620.00
2018-08-10T05:10:30.291Z,4700.00
2018-08-10T05:11:30.279Z,4608.00
2018-08-10T05:12:30.890Z,4564.00
2018-08-10T05:13:30.261Z,4640.00
2018-08-10T05:14:30.257Z,4736.00
2018-08-10T05:15:30.240Z,4860.00
2018-08-10T05:16:30.230Z,4948.00
2018-08-10T05:17:30.226Z,4992.00
2018-08-10T05:19:47.530Z,5188.00
2018-08-10T05:20:47.045Z,5636.00
2018-08-10T05:21:47.168Z,5740.00
2018-08-10T05:24:04.933Z,5716.00
2018-08-10T05:25:04.990Z,5740.00
2018-08-10T05:26:04.801Z,5612.00
2018-08-10T05:27:04.724Z,5628.00
2018-08-10T05:28:04.720Z,5604.00
2018-08-10T05:29:04.719Z,5652.00
2018-08-10T05:30:04.698Z,5768.00
2018-08-10T05:31:04.735Z,5824.00
2018-08-10T05:32:04.712Z,5904.00
2018-08-10T05:33:04.648Z,5976.00
2018-08-10T05:34:04.712Z,6036.00
2018-08-10T05:35:04.641Z,6040.00
2018-08-10T05:36:04.707Z,6048.00
2018-08-10T05:37:04.612Z,6028.00
2018-08-10T05:38:04.600Z,6048.00
2018-08-10T05:39:05.426Z,6044.00
2018-08-10T05:40:04.674Z,6060.00
2018-08-10T05:41:04.611Z,6128.00
2018-08-10T05:42:04.577Z,6192.00
2018-08-10T05:43:04.639Z,6240.00
2018-08-10T05:44:04.602Z,6220.00
2018-08-10T05:45:04.526Z,6232.00
2018-08-10T05:46:04.531Z,6252.00
2018-08-10T05:47:04.712Z,6284.00
2018-08-10T05:48:05.723Z,6296.00
2018-08-10T05:49:04.482Z,6320.00
2018-08-10T05:50:04.466Z,6304.00
2018-08-10T05:51:04.542Z,6292.00
2018-08-10T05:52:04.557Z,6376.00
2018-08-10T05:53:04.666Z,6476.00
2018-08-10T05:54:14.067Z,6456.00
2018-08-10T05:55:05.232Z,6540.00
2018-08-10T05:56:04.632Z,6620.00
2018-08-10T05:58:24.596Z,6724.00
2018-08-10T06:26:41.612Z,9744.00
2018-08-10T06:27:41.643Z,9140.00
2018-08-10T06:28:41.693Z,9224.00
2018-08-10T06:30:52.902Z,12024.00
2018-08-10T06:31:52.630Z,13292.00
2018-08-10T06:32:52.428Z,15496.00
2018-08-10T06:33:52.471Z,15380.00
2018-08-10T06:34:52.388Z,14900.00
2018-08-10T06:35:52.351Z,14412.00
2018-08-10T06:36:52.292Z,14172.00
2018-08-10T06:37:52.328Z,15908.00
2018-08-10T06:38:52.374Z,16300.00
2018-08-10T06:39:54.077Z,15424.00
2018-08-10T06:40:52.239Z,15640.00
2018-08-10T06:41:52.223Z,16960.00
2018-08-10T06:42:52.213Z,18304.00
2018-08-10T06:43:52.204Z,20640.00
2018-08-10T06:44:52.473Z,19840.00
2018-08-10T06:45:52.188Z,17632.00
2018-08-10T06:46:52.202Z,18368.00
2018-08-10T06:47:52.154Z,19264.00
2018-08-10T06:48:52.156Z,17984.00
2018-08-10T06:49:52.173Z,16424.00
2018-08-10T06:50:52.139Z,15888.00
2018-08-10T06:51:52.118Z,15592.00
2018-08-10T06:52:52.112Z,14456.00
2018-08-10T06:53:52.093Z,13696.00
2018-08-10T06:54:52.110Z,13720.00
2018-08-10T06:55:52.179Z,15584.00
2018-08-10T06:56:52.073Z,13528.00
2018-08-10T06:57:52.074Z,12900.00
2018-08-10T06:58:52.039Z,11504.00
2018-08-10T06:59:52.041Z,13276.00
2018-08-10T07:00:52.064Z,13128.00
2018-08-10T07:01:52.034Z,12248.00
2018-08-10T07:02:52.077Z,10956.00
2018-08-10T07:05:13.132Z,10620.00
2018-08-10T07:06:12.766Z,10748.00
2018-08-10T07:07:12.896Z,10772.00
2018-08-10T07:08:15.447Z,10592.00
2018-08-10T07:09:12.665Z,11228.00
2018-08-10T07:10:12.777Z,12428.00
2018-08-10T07:12:29.791Z,12060.00
2018-08-10T07:13:29.667Z,10644.00
2018-08-10T07:14:29.670Z,10200.00
2018-08-10T07:15:29.477Z,10364.00
2018-08-10T07:16:29.374Z,11004.00
2018-08-10T07:17:29.364Z,11276.00
2018-08-10T07:18:30.026Z,15320.00
2018-08-10T07:19:30.147Z,20160.00
2018-08-10T07:23:18.091Z,46528.00
2018-08-10T07:24:16.192Z,54432.00
2018-08-10T07:25:16.637Z,58944.00
2018-08-10T07:26:18.248Z,61696.00
2018-08-10T07:27:24.786Z,67584.00
2018-08-10T07:28:16.770Z,64128.00
2018-08-10T07:29:39.609Z,69056.00
2018-08-10T07:30:16.145Z,69280.00
2018-08-10T07:32:42.487Z,73248.00
2018-08-10T07:33:42.451Z,73760.00
2018-08-10T07:34:42.441Z,76736.00
2018-08-10T07:35:42.428Z,76000.00
2018-08-10T07:36:42.429Z,74752.00
2018-08-10T07:37:42.409Z,76512.00
2018-08-10T07:38:42.411Z,61632.00
2018-08-10T07:39:42.386Z,74656.00
2018-08-10T07:40:42.386Z,76000.00
2018-08-10T07:41:42.371Z,23776.00
2018-08-10T07:42:42.352Z,78304.00
2018-08-10T07:43:42.371Z,80384.00
2018-08-10T07:44:42.328Z,81568.00
2018-08-10T07:45:42.324Z,59776.00
2018-08-10T07:46:43.271Z,84000.00
2018-08-10T07:47:42.304Z,78560.00
2018-08-10T07:49:53.560Z,82784.00
2018-08-10T07:50:53.162Z,87488.00
2018-08-10T07:51:53.120Z,64160.00
2018-08-10T07:52:53.125Z,83776.00
2018-08-10T07:53:53.185Z,84960.00
2018-08-10T07:54:53.338Z,84768.00
2018-08-10T07:55:53.111Z,89248.00
2018-08-10T07:56:53.050Z,87712.00
2018-08-10T07:57:53.098Z,84832.00
2018-08-10T07:58:53.110Z,85120.00
2018-08-10T07:59:53.044Z,85792.00
2018-08-10T08:00:54.021Z,85088.00
2018-08-10T08:01:53.086Z,85408.00
2018-08-10T08:02:53.770Z,90208.00
2018-08-10T08:13:01.727Z,21056.00
2018-08-10T08:14:01.598Z,70432.00
2018-08-10T08:15:01.969Z,92448.00
2018-08-10T08:16:01.406Z,39904.00
2018-08-10T08:17:01.393Z,21024.00
2018-08-10T08:18:01.596Z,23360.00
2018-08-10T08:19:01.473Z,24864.00
2018-08-10T08:20:01.504Z,20800.00
2018-08-10T08:21:17.878Z,25440.00
2018-08-10T08:22:11.825Z,29888.00
2018-08-10T08:23:16.398Z,31168.00
2018-08-10T08:24:01.363Z,91296.00
2018-08-10T08:25:12.305Z,87168.00
2018-08-10T08:26:01.358Z,102080.00
2018-08-10T08:27:16.342Z,101280.00
2018-08-10T08:28:01.296Z,99520.00
2018-08-10T08:29:01.288Z,96896.00
2018-08-10T08:30:11.555Z,98080.00
2018-08-10T08:31:01.290Z,101152.00
2018-08-10T08:32:01.313Z,100512.00
2018-08-10T08:33:01.262Z,55392.00
2018-08-10T08:34:01.197Z,94080.00
2018-08-10T08:35:01.407Z,90496.00
2018-08-10T08:36:01.286Z,89984.00
2018-08-10T08:37:01.898Z,18784.00
2018-08-10T08:38:01.168Z,14352.00
2018-08-10T08:39:01.154Z,15488.00
2018-08-10T08:40:01.180Z,42208.00
2018-08-10T08:41:01.291Z,95744.00
2018-08-10T08:42:01.225Z,95488.00
2018-08-10T08:43:01.125Z,100064.00
2018-08-10T08:44:01.109Z,97952.00
2018-08-10T08:45:01.227Z,101280.00
2018-08-10T08:46:01.325Z,104384.00
2018-08-10T08:47:01.888Z,105600.00
2018-08-10T08:48:01.109Z,78112.00
2018-08-10T08:49:01.055Z,106016.00
2018-08-10T08:50:01.077Z,104416.00
2018-08-10T08:51:01.039Z,100832.00
2018-08-10T08:52:01.130Z,96704.00
2018-08-10T08:53:01.104Z,93088.00
2018-08-10T08:54:01.135Z,93472.00
2018-08-10T08:55:01.004Z,95680.00
2018-08-10T08:56:01.046Z,97248.00
2018-08-10T08:57:01.831Z,95968.00
2018-08-10T08:59:39.525Z,98944.00
2018-08-10T09:00:39.180Z,97280.00
2018-08-10T09:01:39.093Z,101344.00
2018-08-10T09:02:39.156Z,102368.00
2018-08-10T09:03:39.937Z,104608.00
2018-08-10T09:04:39.070Z,93888.00
2018-08-10T09:05:39.076Z,101920.00
2018-08-10T09:06:41.947Z,101344.00
2018-08-10T09:07:39.217Z,99200.00
2018-08-10T09:08:39.048Z,98048.00
2018-08-10T09:09:39.039Z,47168.00
2018-08-10T09:13:23.178Z,99968.00
2018-08-10T09:15:53.672Z,104512.00
2018-08-10T09:16:53.032Z,98656.00
2018-08-10T09:17:53.059Z,109408.00
2018-08-10T09:18:52.929Z,110144.00
2018-08-10T09:19:52.893Z,24224.00
2018-08-10T09:21:01.535Z,97248.00
2018-08-10T09:21:53.058Z,108480.00
2018-08-10T09:22:52.921Z,106912.00
2018-08-10T09:28:05.259Z,92672.00
2018-08-10T09:29:05.649Z,100768.00
2018-08-10T09:30:04.799Z,104064.00
2018-08-10T09:31:04.801Z,117504.00
2018-08-10T09:32:04.787Z,123328.00
2018-08-10T09:33:04.771Z,114016.00
2018-08-10T09:34:04.798Z,109760.00
2018-08-10T09:35:04.823Z,50976.00
2018-08-10T09:36:04.750Z,119520.00
2018-08-10T09:37:04.747Z,123264.00
2018-08-10T09:38:04.742Z,121184.00
2018-08-10T09:39:04.713Z,119968.00
2018-08-10T09:40:04.757Z,116896.00
2018-08-10T09:41:04.720Z,113344.00
2018-08-10T09:42:04.931Z,118624.00
2018-08-10T09:43:04.740Z,119136.00
2018-08-10T09:44:04.689Z,104640.00
2018-08-10T09:45:11.909Z,120640.00
2018-08-10T09:46:05.815Z,116704.00
2018-08-10T09:47:04.875Z,121760.00
2018-08-10T09:48:05.921Z,127232.00
2018-08-10T09:49:04.672Z,116512.00
2018-08-10T09:50:04.636Z,120096.00
2018-08-10T09:51:12.579Z,26368.00
2018-08-10T09:52:04.680Z,35232.00
2018-08-10T09:53:04.764Z,117984.00
2018-08-10T09:54:05.137Z,120608.00
2018-08-10T09:55:04.602Z,123840.00
2018-08-10T09:56:04.573Z,106368.00
2018-08-10T09:57:04.585Z,90944.00
2018-08-10T09:58:04.678Z,25184.00
2018-08-10T09:59:04.594Z,79584.00
2018-08-10T10:00:04.629Z,53856.00
2018-08-10T10:01:04.531Z,116896.00
2018-08-10T10:02:04.509Z,119552.00
2018-08-10T10:03:04.518Z,118528.00
2018-08-10T10:04:04.544Z,115168.00
2018-08-10T10:05:04.709Z,117248.00
2018-08-10T10:06:04.475Z,114624.00
2018-08-10T10:07:04.565Z,117984.00
2018-08-10T10:08:04.564Z,119936.00
2018-08-10T10:09:04.519Z,118176.00
2018-08-10T10:10:04.498Z,122048.00
2018-08-10T10:11:04.422Z,53696.00
2018-08-10T10:12:04.426Z,25312.00
2018-08-10T10:13:04.427Z,23968.00
2018-08-10T10:14:04.410Z,23648.00
2018-08-10T10:15:04.397Z,23488.00
2018-08-10T10:16:05.149Z,23488.00
2018-08-10T10:47:20.127Z,92128.00
2018-08-10T10:48:27.930Z,18528.00
2018-08-10T10:49:20.714Z,16664.00
2018-08-10T10:50:19.867Z,18848.00
2018-08-10T10:51:19.991Z,121120.00
2018-08-10T10:52:19.698Z,122176.00
2018-08-10T10:53:20.732Z,124352.00
2018-08-10T10:56:15.965Z,112288.00
2018-08-10T11:00:05.458Z,121568.00
2018-08-10T11:01:04.485Z,124768.00
2018-08-10T11:02:06.420Z,23232.00
2018-08-10T11:03:04.402Z,21984.00
2018-08-10T11:04:04.316Z,123648.00
2018-08-10T11:05:04.343Z,127328.00
2018-08-10T11:06:05.120Z,127424.00
2018-08-10T11:07:04.333Z,128160.00
2018-08-10T11:08:04.435Z,123616.00
2018-08-10T11:09:04.292Z,125696.00
2018-08-10T11:10:04.259Z,126016.00
2018-08-10T11:11:04.277Z,125792.00
2018-08-10T11:12:04.231Z,122624.00
2018-08-10T11:13:04.302Z,124512.00
2018-08-10T11:14:04.228Z,39712.00
2018-08-10T11:15:04.229Z,33184.00
2018-08-10T11:18:50.757Z,73344.00
2018-08-10T11:21:55.405Z,123040.00
2018-08-10T11:22:55.789Z,70016.00
2018-08-10T11:23:54.716Z,129312.00
2018-08-10T11:24:56.542Z,131680.00
2018-08-10T11:25:55.164Z,129600.00
2018-08-10T11:27:07.490Z,122048.00
2018-08-10T11:27:55.082Z,126272.00
2018-08-10T11:28:54.656Z,114592.00
2018-08-10T11:33:22.337Z,105056.00
2018-08-10T11:37:36.370Z,119168.00
2018-08-10T11:40:27.840Z,103392.00
2018-08-10T11:41:27.441Z,31264.00
2018-08-10T11:42:27.455Z,119296.00
2018-08-10T11:43:30.087Z,93984.00
2018-08-10T11:44:27.433Z,118208.00
2018-08-10T11:45:27.408Z,23104.00
2018-08-10T11:46:27.376Z,124960.00
2018-08-10T11:47:27.375Z,20832.00
2018-08-10T11:48:27.412Z,20672.00
2018-08-10T11:49:27.347Z,123392.00
2018-08-10T11:50:27.388Z,85728.00
2018-08-10T11:51:27.417Z,129632.00
2018-08-10T11:52:40.394Z,129536.00
2018-08-10T11:53:27.373Z,126976.00
2018-08-10T11:54:27.425Z,126464.00
2018-08-10T12:04:13.620Z,121024.00
2018-08-10T12:05:15.619Z,105120.00
2018-08-10T12:06:13.227Z,36000.00
2018-08-10T12:07:13.758Z,118656.00
2018-08-10T12:09:52.880Z,87040.00
2018-08-10T12:12:12.395Z,19520.00
2018-08-10T12:13:12.030Z,18592.00
2018-08-10T12:14:12.604Z,18688.00
2018-08-10T12:15:11.929Z,19808.00
2018-08-10T12:18:01.527Z,29152.00
2018-08-10T12:19:01.282Z,28256.00
2018-08-10T12:20:01.085Z,27040.00
2018-08-10T12:21:03.956Z,35008.00
2018-08-10T12:22:01.088Z,98272.00
2018-08-10T12:23:01.787Z,37536.00
2018-08-10T12:24:01.047Z,31264.00
2018-08-10T12:30:24.919Z,118432.00
2018-08-10T12:31:24.512Z,112544.00
2018-08-10T12:32:24.388Z,108384.00
2018-08-10T12:33:24.448Z,110272.00
2018-08-10T12:34:24.402Z,107488.00
2018-08-10T12:35:24.332Z,110496.00
2018-08-10T12:36:24.351Z,109248.00
2018-08-10T12:37:37.914Z,99296.00
2018-08-10T12:38:25.362Z,96544.00
2018-08-10T12:39:24.374Z,68160.00
2018-08-10T12:40:33.626Z,104576.00
2018-08-10T12:41:24.380Z,103264.00
2018-08-10T12:42:24.321Z,100160.00
2018-08-10T12:43:24.377Z,100064.00
2018-08-10T12:44:24.997Z,105184.00
2018-08-10T12:45:24.248Z,110208.00
2018-08-10T12:46:24.434Z,96672.00
2018-08-10T12:48:36.345Z,30208.00
2018-08-10T12:49:35.357Z,107232.00
2018-08-10T12:50:35.626Z,93344.00
2018-08-10T12:51:35.842Z,26112.00
2018-08-10T12:53:12.682Z,29184.00
2018-08-10T12:54:44.442Z,106656.00
2018-08-10T12:55:43.875Z,109504.00
2018-08-10T12:56:43.923Z,17372.00
2018-08-10T12:57:45.685Z,16304.00
2018-08-10T12:59:55.792Z,16440.00
2018-08-10T13:00:55.901Z,16396.00
2018-08-10T13:01:55.678Z,16688.00
2018-08-10T13:02:56.249Z,17536.00
2018-08-10T13:05:00.241Z,18496.00
2018-08-10T13:05:59.948Z,19200.00
2018-08-10T13:07:00.013Z,18528.00
2018-08-10T13:07:59.982Z,18432.00
2018-08-10T13:08:59.839Z,17888.00
2018-08-10T13:09:59.884Z,16576.00
2018-08-10T13:13:12.424Z,15784.00
2018-08-10T13:14:12.240Z,43488.00
2018-08-10T13:15:12.335Z,20736.00
2018-08-10T13:16:12.225Z,24800.00
2018-08-10T13:17:12.170Z,33760.00
2018-08-10T13:18:12.191Z,70848.00
2018-08-10T13:19:14.816Z,41632.00
2018-08-10T13:21:39.636Z,39040.00
2018-08-10T13:22:39.287Z,31136.00
2018-08-10T13:23:39.262Z,104704.00
2018-08-10T13:24:39.212Z,45024.00
2018-08-10T13:25:39.126Z,105056.00
2018-08-10T13:26:39.124Z,93728.00
2018-08-10T13:27:39.103Z,92160.00
2018-08-10T13:28:39.344Z,100480.00
2018-08-10T13:29:39.095Z,62944.00
2018-08-10T13:32:07.808Z,80608.00
2018-08-10T13:33:08.735Z,89504.00
2018-08-10T13:34:07.736Z,90880.00
2018-08-10T13:35:07.720Z,101888.00
2018-08-10T13:36:07.663Z,116992.00
2018-08-10T13:37:07.677Z,30368.00
2018-08-10T13:38:07.648Z,100096.00
2018-08-10T13:39:07.739Z,107744.00
2018-08-10T13:40:07.639Z,27104.00
2018-08-10T13:41:07.619Z,22560.00
2018-08-10T13:42:07.606Z,97856.00
2018-08-10T13:43:09.548Z,74688.00
2018-08-10T13:44:07.665Z,41760.00
2018-08-10T13:45:10.615Z,20352.00
2018-08-10T13:49:09.696Z,26816.00
2018-08-10T13:50:05.662Z,26144.00
2018-08-10T13:51:05.688Z,28736.00
2018-08-10T13:52:05.603Z,29152.00
2018-08-10T13:53:06.066Z,30912.00
2018-08-10T13:54:05.404Z,31520.00
2018-08-10T13:55:05.403Z,31520.00
2018-08-10T13:56:05.423Z,28128.00
2018-08-10T13:57:05.368Z,23904.00
2018-08-10T13:58:05.395Z,21344.00
2018-08-10T14:01:29.927Z,19648.00
2018-08-10T14:02:29.260Z,21696.00
2018-08-10T14:03:31.562Z,23488.00
2018-08-10T14:07:41.948Z,27136.00
2018-08-10T14:08:41.789Z,28160.00
2018-08-10T14:09:41.868Z,26720.00
2018-08-10T14:12:26.998Z,48704.00
2018-08-10T14:13:26.450Z,45440.00
2018-08-10T14:14:26.471Z,30016.00
2018-08-10T14:16:37.691Z,12980.00
2018-08-10T14:17:42.081Z,13368.00
2018-08-10T14:18:38.223Z,16368.00
2018-08-10T14:19:37.315Z,18880.00
2018-08-10T14:27:43.606Z,22208.00
2018-08-10T14:28:43.467Z,23360.00
2018-08-10T14:29:43.494Z,24224.00
2018-08-10T14:30:43.471Z,23456.00
2018-08-10T14:33:20.777Z,16356.00
2018-08-10T14:34:20.499Z,14340.00
2018-08-10T14:35:20.363Z,13304.00
2018-08-10T14:36:20.437Z,12812.00
2018-08-10T14:37:20.460Z,12840.00
2018-08-10T14:38:21.155Z,13400.00
2018-08-10T14:39:30.849Z,13776.00
2018-08-10T14:40:20.510Z,14164.00
2018-08-10T14:41:20.504Z,15020.00
2018-08-10T14:42:20.473Z,16148.00
2018-08-10T14:43:21.202Z,16156.00
2018-08-10T14:44:27.108Z,16508.00
2018-08-10T14:45:20.253Z,18240.00
2018-08-10T14:46:20.439Z,18368.00
2018-08-10T14:47:20.394Z,20640.00
2018-08-10T14:48:20.267Z,20064.00
2018-08-10T14:49:20.246Z,19616.00
2018-08-10T14:50:20.204Z,19616.00
2018-08-10T14:51:20.475Z,18048.00
2018-08-10T14:52:20.229Z,16376.00
2018-08-10T14:53:20.215Z,15232.00
2018-08-10T14:54:20.290Z,14528.00
2018-08-10T15:03:39.338Z,15556.00
2018-08-10T15:04:38.918Z,15288.00
2018-08-10T15:05:38.781Z,14368.00
2018-08-10T15:06:38.983Z,14980.00
2018-08-10T15:07:38.808Z,14680.00
2018-08-10T15:08:40.580Z,14664.00
2018-08-10T15:09:39.373Z,16192.00
2018-08-10T15:10:41.880Z,15640.00
2018-08-10T15:11:38.816Z,15816.00
2018-08-10T15:18:45.268Z,18112.00
2018-08-10T15:21:09.147Z,19200.00
2018-08-10T15:22:08.900Z,19872.00
2018-08-10T15:23:08.757Z,19808.00
2018-08-10T15:24:08.666Z,19712.00
2018-08-10T15:25:09.874Z,18592.00
2018-08-10T15:26:08.636Z,18080.00
2018-08-10T15:27:08.875Z,17056.00
2018-08-10T15:28:08.613Z,14100.00
2018-08-10T15:29:08.803Z,14776.00
2018-08-10T15:30:09.463Z,14332.00
2018-08-10T15:32:56.897Z,12144.00
2018-08-10T15:35:15.710Z,14424.00
2018-08-10T15:36:17.417Z,15168.00
2018-08-10T15:38:32.750Z,14964.00
2018-08-10T15:47:58.238Z,13516.00
2018-08-10T15:48:56.360Z,13360.00
2018-08-10T15:49:56.452Z,13208.00
2018-08-10T15:50:56.409Z,13908.00
2018-08-10T15:51:56.355Z,15028.00
2018-08-10T15:55:18.790Z,14628.00
2018-08-10T15:56:18.009Z,14168.00
2018-08-10T15:57:17.919Z,14200.00
2018-08-10T15:58:17.919Z,14656.00
2018-08-10T15:59:17.936Z,14484.00
2018-08-10T16:00:17.839Z,13916.00
2018-08-10T16:01:17.810Z,16728.00
2018-08-10T16:02:17.818Z,12360.00
2018-08-10T16:03:17.851Z,11172.00
2018-08-10T16:07:37.424Z,8252.00
2018-08-10T16:08:35.909Z,10100.00
2018-08-10T16:09:36.087Z,9376.00
2018-08-10T16:10:37.849Z,11284.00
2018-08-10T16:11:36.720Z,12384.00
2018-08-10T16:17:26.072Z,10464.00
2018-08-10T16:18:25.244Z,12236.00
2018-08-10T16:28:15.092Z,8816.00
2018-08-10T16:29:14.613Z,8680.00
2018-08-10T16:31:33.453Z,8564.00
2018-08-10T16:33:48.107Z,7924.00
2018-08-10T16:34:47.653Z,7892.00
2018-08-10T16:35:47.615Z,7928.00
2018-08-10T16:40:34.247Z,8180.00
2018-08-10T16:41:34.183Z,7376.00
2018-08-10T16:42:34.137Z,6904.00
2018-08-10T16:47:32.160Z,8704.00
2018-08-10T16:48:32.228Z,8760.00
2018-08-10T16:49:32.049Z,8576.00
2018-08-10T16:50:32.132Z,8068.00
2018-08-10T16:51:32.099Z,7036.00
2018-08-10T16:52:32.019Z,7560.00
2018-08-10T16:53:32.004Z,7704.00
2018-08-10T16:54:31.988Z,7256.00
2018-08-10T16:55:32.036Z,8260.00
2018-08-10T16:56:31.981Z,8632.00
2018-08-10T16:57:31.964Z,8940.00
2018-08-10T16:58:31.984Z,9212.00
2018-08-10T16:59:31.943Z,9436.00
2018-08-10T17:00:31.935Z,9468.00
2018-08-10T17:01:31.938Z,9388.00
2018-08-10T17:02:31.911Z,9048.00
2018-08-10T17:03:31.893Z,8496.00
2018-08-10T17:04:32.037Z,7824.00
2018-08-10T17:05:31.880Z,5680.00
2018-08-10T17:06:31.938Z,5048.00
2018-08-10T17:07:31.928Z,4680.00
2018-08-10T17:08:31.845Z,4932.00
2018-08-10T17:09:31.840Z,4632.00
2018-08-10T17:10:31.824Z,4624.00
2018-08-10T17:11:31.841Z,4664.00
2018-08-10T17:12:31.845Z,4688.00
2018-08-10T17:13:31.839Z,4980.00
2018-08-10T17:14:31.786Z,5400.00
2018-08-10T17:15:31.811Z,5584.00
2018-08-10T17:16:31.787Z,5248.00
2018-08-10T17:17:31.811Z,5052.00
2018-08-10T17:18:31.803Z,5184.00
2018-08-10T17:19:41.155Z,5072.00
2018-08-10T17:20:31.929Z,5228.00
2018-08-10T17:28:45.956Z,4308.00
2018-08-10T17:29:43.680Z,4208.00
2018-08-10T17:30:43.758Z,4232.00
2018-08-10T17:31:43.867Z,4164.00
2018-08-10T17:32:43.640Z,4100.00
2018-08-10T17:33:54.640Z,4068.00
2018-08-10T17:34:43.698Z,4532.00
2018-08-10T17:35:43.671Z,5060.00
2018-08-10T17:36:44.368Z,4396.00
2018-08-10T17:40:03.033Z,5808.00
2018-08-10T17:49:04.913Z,3724.00
2018-08-10T17:50:04.655Z,3540.00
2018-08-10T17:51:04.590Z,3472.00
2018-08-10T17:52:04.575Z,3400.00
2018-08-10T17:53:04.553Z,3376.00
2018-08-10T17:54:04.519Z,3376.00
2018-08-10T17:55:04.503Z,3464.00
2018-08-10T17:56:04.525Z,3184.00
2018-08-10T17:57:04.560Z,3104.00
2018-08-10T17:58:04.465Z,3204.00
2018-08-10T17:59:04.561Z,3392.00
2018-08-10T18:00:04.957Z,3356.00
2018-08-10T18:01:04.445Z,3216.00
2018-08-10T18:02:04.452Z,3296.00
2018-08-10T18:03:04.527Z,3444.00
2018-08-10T18:04:04.415Z,3580.00
2018-08-10T18:05:04.396Z,3720.00
2018-08-10T18:06:05.168Z,3812.00
2018-08-10T18:07:04.383Z,3788.00
2018-08-10T18:08:04.368Z,3736.00
2018-08-10T18:09:04.371Z,3584.00
2018-08-10T18:10:04.491Z,3360.00
2018-08-10T18:11:04.338Z,3076.00
2018-08-10T18:12:04.340Z,2804.00
2018-08-10T18:13:04.314Z,2628.00
2018-08-10T18:14:04.291Z,2548.00
2018-08-10T18:15:04.284Z,2544.00
2018-08-10T18:16:04.272Z,2600.00
2018-08-10T18:17:04.283Z,2656.00
2018-08-10T18:18:04.272Z,2668.00
2018-08-10T18:19:04.263Z,2600.00
2018-08-10T18:20:04.236Z,2560.00
2018-08-10T18:22:21.363Z,2336.00
2018-08-10T18:23:20.874Z,2304.00
2018-08-10T18:24:20.895Z,2280.00
2018-08-10T18:25:20.851Z,2292.00
2018-08-10T18:26:20.841Z,2272.00
2018-08-10T18:27:21.025Z,2300.00
2018-08-10T18:28:20.850Z,2376.00
2018-08-10T18:29:20.808Z,2472.00
2018-08-10T18:30:20.801Z,2448.00
2018-08-10T18:31:20.790Z,2288.00
2018-08-10T18:32:20.800Z,2092.00
2018-08-10T18:33:20.784Z,1884.00
2018-08-10T18:34:20.769Z,1720.00
2018-08-10T18:35:20.754Z,1620.00
2018-08-10T18:36:20.746Z,1528.00
2018-08-10T18:37:20.727Z,1452.00
2018-08-10T18:38:20.730Z,1392.00
2018-08-10T18:39:20.728Z,1328.00
2018-08-10T18:40:20.743Z,1280.00
2018-08-10T18:41:20.685Z,1236.00
2018-08-10T18:42:20.669Z,1192.00
2018-08-10T18:43:20.685Z,1156.00
2018-08-10T18:44:20.654Z,1112.00
2018-08-10T18:45:20.646Z,1048.00
2018-08-10T18:46:20.641Z,976.00
2018-08-10T18:47:20.617Z,900.00
2018-08-10T18:48:20.606Z,820.00
2018-08-10T18:49:20.614Z,752.00
2018-08-10T18:50:20.590Z,688.00
2018-08-10T18:51:20.579Z,640.00
2018-08-10T18:52:20.607Z,592.00
2018-08-10T18:53:20.552Z,544.00
2018-08-10T18:54:20.646Z,500.00
2018-08-10T18:55:20.570Z,460.00
2018-08-10T18:56:20.521Z,428.00
2018-08-10T18:57:20.507Z,400.00
2018-08-10T18:58:20.548Z,376.00
2018-08-10T18:59:20.576Z,348.00
2018-08-10T19:00:20.496Z,328.00
2018-08-10T19:01:20.566Z,300.00
2018-08-10T19:02:20.453Z,280.00
2018-08-10T19:03:20.455Z,256.00
2018-08-10T19:04:20.431Z,232.00
2018-08-10T19:05:20.422Z,208.00
2018-08-10T19:06:20.423Z,188.00
2018-08-10T19:07:20.426Z,172.00
2018-08-10T19:08:20.404Z,156.00
2018-08-10T19:09:20.418Z,140.00
2018-08-10T19:10:20.365Z,124.00
2018-08-10T19:11:20.411Z,108.00
2018-08-10T19:12:20.437Z,96.00
2018-08-10T19:13:20.512Z,88.00
2018-08-10T19:14:20.397Z,76.00
2018-08-10T19:15:20.337Z,68.00
2018-08-10T19:16:20.300Z,60.00
2018-08-10T19:17:20.312Z,56.00
2018-08-10T19:18:20.304Z,44.00
2018-08-10T19:19:20.270Z,44.00
2018-08-10T19:20:20.268Z,36.00
2018-08-10T19:21:21.095Z,32.00
2018-08-10T19:22:20.239Z,28.00
2018-08-10T19:23:20.246Z,20.00
2018-08-10T19:24:20.213Z,20.00
2018-08-10T19:25:20.205Z,16.00
2018-08-10T19:26:20.221Z,16.00
2018-08-10T19:27:20.212Z,12.00
2018-08-10T19:28:20.167Z,12.00
2018-08-10T19:29:20.158Z,8.00
2018-08-10T19:30:20.196Z,8.00
2018-08-10T19:31:20.166Z,4.00
2018-08-10T19:32:20.139Z,8.00
2018-08-10T19:33:20.149Z,4.00
2018-08-10T19:34:20.507Z,4.00
2018-08-10T19:35:20.214Z,4.00
2018-08-10T19:36:20.089Z,0.00
2018-08-10T19:37:20.077Z,4.00
2018-08-10T19:38:20.190Z,4.00
2018-08-10T19:39:20.075Z,4.00